Time;durP1;ratioP1;P1;durP2;ratioP2;P2;SDS_P1;SDS_P2;PMS_P1;PMS_P2;Temp;Humidity;BMP_temperature;BMP_pressure;BME280_temperature;BME280_humidity;BME280_pressure;Samples;Min_cycle;Max_cycle;Signal;HPM_P1;HPM_P2
2022/06/17 03:30:57;;;;;;;18.80;18.00;;;;;;;;;;5130851;27;20552;-72
2022/06/17 03:33:26;;;;;;;18.90;18.10;;;;;;;;;;5130287;27;20609;-72
2022/06/17 03:35:56;;;;;;;18.90;18.10;;;;;;;;;;5130153;28;20669;-72
2022/06/17 03:38:25;;;;;;;18.75;17.95;;;;;;;;;;5130065;27;20221;-72
2022/06/17 03:40:55;;;;;;;18.25;17.35;;;;;;;;;;5129984;28;20239;-72
2022/06/17 03:43:24;;;;;;;18.38;17.48;;;;;;;;;;5130853;28;20202;-72
2022/06/17 03:45:53;;;;;;;18.55;17.55;;;;;;;;;;5130207;28;20203;-72
2022/06/17 03:48:26;;;;;;;18.40;17.40;;;;;;;;;;5130292;27;20189;-72
2022/06/17 03:50:53;;;;;;;18.75;17.75;;;;;;;;;;5130185;28;20184;-72
2022/06/17 03:53:23;;;;;;;18.50;17.50;;;;;;;;;;5129841;28;20279;-73
2022/06/17 03:55:50;;;;;;;18.38;17.38;;;;;;;;;;5130106;28;20277;-72
2022/06/17 03:58:19;;;;;;;18.05;17.05;;;;;;;;;;5129614;28;20215;-72
2022/06/17 04:00:48;;;;;;;18.00;17.00;;;;;;;;;;5129976;28;20199;-72
2022/06/17 04:03:17;;;;;;;18.38;17.27;;;;;;;;;;5129897;28;20243;-72
2022/06/17 04:05:48;;;;;;;17.88;16.77;;;;;;;;;;5129895;28;20227;-72
2022/06/17 04:08:14;;;;;;;18.40;17.30;;;;;;;;;;5129509;28;20276;-72
2022/06/17 04:10:41;;;;;;;18.63;17.42;;;;;;;;;;5129507;28;20235;-72
2022/06/17 04:13:11;;;;;;;18.10;16.95;;;;;;;;;;5129726;28;20231;-72
2022/06/17 04:15:42;;;;;;;18.00;16.90;;;;;;;;;;5129717;28;20239;-72
2022/06/17 04:18:09;;;;;;;18.23;17.13;;;;;;;;;;5129705;28;20224;-72
2022/06/17 04:20:38;;;;;;;18.50;17.40;;;;;;;;;;5129508;28;20581;-71
2022/06/17 04:23:11;;;;;;;17.75;16.65;;;;;;;;;;5129242;28;20192;-72
2022/06/17 04:25:39;;;;;;;18.30;17.20;;;;;;;;;;5129559;27;20241;-72
2022/06/17 04:28:07;;;;;;;18.48;17.30;;;;;;;;;;5129196;28;20231;-72
2022/06/17 04:30:35;;;;;;;17.75;16.65;;;;;;;;;;5122262;28;20240;-72
2022/06/17 04:33:04;;;;;;;18.63;17.52;;;;;;;;;;5115399;28;20280;-72
2022/06/17 04:35:31;;;;;;;18.35;17.25;;;;;;;;;;5115595;28;20224;-72
2022/06/17 04:37:58;;;;;;;17.52;16.52;;;;;;;;;;5115290;28;20747;-72
2022/06/17 04:40:30;;;;;;;17.80;16.70;;;;;;;;;;5115507;28;20247;-72
2022/06/17 04:42:58;;;;;;;18.48;17.38;;;;;;;;;;5115502;28;20189;-72
2022/06/17 04:45:26;;;;;;;18.10;17.00;;;;;;;;;;5115153;28;20284;-72
2022/06/17 04:47:53;;;;;;;17.88;16.85;;;;;;;;;;5115042;28;20201;-71
2022/06/17 04:50:22;;;;;;;18.05;17.05;;;;;;;;;;5115348;28;20727;-72
2022/06/17 04:52:51;;;;;;;17.98;16.98;;;;;;;;;;5114979;28;20238;-72
2022/06/17 04:55:20;;;;;;;18.27;17.27;;;;;;;;;;5114929;28;20204;-72
2022/06/17 04:57:48;;;;;;;17.92;16.92;;;;;;;;;;5114890;28;20288;-72
2022/06/17 05:00:17;;;;;;;17.60;16.60;;;;;;;;;;5114791;28;20789;-72
2022/06/17 05:02:43;;;;;;;17.98;16.98;;;;;;;;;;5115078;28;20199;-72
2022/06/17 05:05:15;;;;;;;17.55;16.55;;;;;;;;;;5115069;28;20197;-71
2022/06/17 05:07:44;;;;;;;17.55;16.55;;;;;;;;;;5115084;28;20235;-72
2022/06/17 05:10:16;;;;;;;17.50;16.50;;;;;;;;;;5114629;28;20232;-71
2022/06/17 05:12:44;;;;;;;17.20;16.20;;;;;;;;;;5115029;28;20212;-72
2022/06/17 05:15:14;;;;;;;17.27;16.27;;;;;;;;;;5114865;28;20221;-72
2022/06/17 05:17:41;;;;;;;17.35;16.45;;;;;;;;;;5114854;28;20225;-72
2022/06/17 05:20:08;;;;;;;16.83;15.93;;;;;;;;;;5114748;28;20317;-72
2022/06/17 05:22:36;;;;;;;17.33;16.33;;;;;;;;;;5114730;28;20193;-72
2022/06/17 05:25:05;;;;;;;17.58;16.67;;;;;;;;;;5114701;28;20201;-72
2022/06/17 05:27:32;;;;;;;17.30;16.40;;;;;;;;;;5114300;28;20674;-72
2022/06/17 05:29:58;;;;;;;17.25;16.35;;;;;;;;;;5114133;28;20281;-72
2022/06/17 05:32:26;;;;;;;17.17;16.27;;;;;;;;;;5114561;28;20219;-73
2022/06/17 05:34:53;;;;;;;17.65;16.65;;;;;;;;;;5114217;28;20248;-73
2022/06/17 05:37:20;;;;;;;18.00;17.00;;;;;;;;;;5114480;28;20224;-72
2022/06/17 05:39:46;;;;;;;17.60;16.60;;;;;;;;;;5114841;28;20225;-72
2022/06/17 05:42:13;;;;;;;18.00;17.00;;;;;;;;;;5113026;28;20752;-71
2022/06/17 05:44:40;;;;;;;17.20;16.30;;;;;;;;;;5113970;28;20225;-72
2022/06/17 05:47:07;;;;;;;17.30;16.30;;;;;;;;;;5114270;28;20254;-71
2022/06/17 05:49:35;;;;;;;17.08;16.17;;;;;;;;;;5114199;28;20197;-72
2022/06/17 05:52:02;;;;;;;16.70;15.80;;;;;;;;;;5113864;28;20722;-72
2022/06/17 05:54:29;;;;;;;17.02;16.02;;;;;;;;;;5113806;28;20288;-72
2022/06/17 05:56:55;;;;;;;16.98;16.08;;;;;;;;;;5113710;28;20652;-72
2022/06/17 05:59:22;;;;;;;17.83;16.77;;;;;;;;;;5113632;28;20250;-71
2022/06/17 06:01:49;;;;;;;18.05;16.95;;;;;;;;;;5113661;28;20288;-72
2022/06/17 06:04:16;;;;;;;17.30;16.30;;;;;;;;;;5113621;28;20236;-71
2022/06/17 06:06:44;;;;;;;17.55;16.55;;;;;;;;;;5113567;28;20201;-72
2022/06/17 06:09:11;;;;;;;18.20;17.00;;;;;;;;;;5113822;27;20197;-71
2022/06/17 06:11:37;;;;;;;17.90;16.70;;;;;;;;;;5113520;28;20197;-71
2022/06/17 06:14:04;;;;;;;17.90;16.80;;;;;;;;;;5113418;28;20216;-71
2022/06/17 06:16:31;;;;;;;17.77;16.67;;;;;;;;;;5113365;28;20564;-72
2022/06/17 06:18:58;;;;;;;17.83;16.73;;;;;;;;;;5113598;28;20196;-71
2022/06/17 06:21:24;;;;;;;18.10;17.00;;;;;;;;;;5113516;28;20233;-72
2022/06/17 06:23:56;;;;;;;18.02;16.92;;;;;;;;;;5113254;28;20197;-71
2022/06/17 06:26:23;;;;;;;18.65;17.55;;;;;;;;;;5113172;28;20203;-72
2022/06/17 06:28:50;;;;;;;18.13;17.02;;;;;;;;;;5113275;28;20233;-71
2022/06/17 06:31:20;;;;;;;18.05;16.95;;;;;;;;;;5113462;28;20193;-71
2022/06/17 06:33:47;;;;;;;18.67;17.58;;;;;;;;;;5113080;28;20202;-72
2022/06/17 06:36:14;;;;;;;18.17;17.08;;;;;;;;;;5113351;28;20224;-72
2022/06/17 06:38:41;;;;;;;18.27;17.17;;;;;;;;;;5112954;28;20197;-72
2022/06/17 06:41:09;;;;;;;18.25;17.05;;;;;;;;;;5113169;28;20267;-72
2022/06/17 06:43:35;;;;;;;18.10;16.90;;;;;;;;;;5113189;28;20276;-72
2022/06/17 06:46:06;;;;;;;18.58;17.38;;;;;;;;;;5112888;28;20193;-72
2022/06/17 06:48:32;;;;;;;18.65;17.45;;;;;;;;;;5113180;28;20266;-72
2022/06/17 06:50:59;;;;;;;18.80;17.60;;;;;;;;;;5113070;28;20200;-72
2022/06/17 06:53:26;;;;;;;18.67;17.48;;;;;;;;;;5112829;28;20574;-71
2022/06/17 06:55:53;;;;;;;18.58;17.38;;;;;;;;;;5112991;28;20195;-71
2022/06/17 06:58:22;;;;;;;18.55;17.35;;;;;;;;;;5112993;28;20224;-71
2022/06/17 07:00:50;;;;;;;18.70;17.50;;;;;;;;;;5112880;28;20229;-71
2022/06/17 07:03:17;;;;;;;18.23;17.10;;;;;;;;;;5112960;28;20254;-71
2022/06/17 07:05:45;;;;;;;18.20;17.00;;;;;;;;;;5112910;28;20216;-71
2022/06/17 07:08:13;;;;;;;18.50;17.30;;;;;;;;;;5112895;28;20220;-72
2022/06/17 07:10:39;;;;;;;18.55;17.35;;;;;;;;;;5112860;28;20193;-70
2022/06/17 07:13:08;;;;;;;18.55;17.35;;;;;;;;;;5112794;28;20193;-72
2022/06/17 07:15:36;;;;;;;18.80;17.50;;;;;;;;;;5112464;28;20197;-72
2022/06/17 07:18:04;;;;;;;18.45;17.25;;;;;;;;;;5113315;28;20236;-71
2022/06/17 07:20:36;;;;;;;18.83;17.52;;;;;;;;;;5112267;28;20320;-71
2022/06/17 07:23:03;;;;;;;19.60;18.30;;;;;;;;;;5112778;28;20182;-72
2022/06/17 07:25:30;;;;;;;19.10;17.80;;;;;;;;;;5112362;28;20251;-73
2022/06/17 07:27:57;;;;;;;19.00;17.70;;;;;;;;;;5112722;28;20203;-71
2022/06/17 07:30:23;;;;;;;19.02;17.67;;;;;;;;;;5112145;28;20230;-72
2022/06/17 07:32:52;;;;;;;18.88;17.58;;;;;;;;;;5112355;28;20685;-72
2022/06/17 07:35:18;;;;;;;19.85;18.55;;;;;;;;;;5112349;28;20223;-71
2022/06/17 07:40:30;;;;;;;19.80;18.50;;;;;;;;;;5112636;28;20216;-71
2022/06/17 07:42:57;;;;;;;20.30;18.90;;;;;;;;;;5112517;28;20280;-73
2022/06/17 07:45:24;;;;;;;19.98;18.63;;;;;;;;;;5112508;28;20197;-73
2022/06/17 07:47:53;;;;;;;19.45;18.15;;;;;;;;;;5112166;28;20288;-72
2022/06/17 07:50:21;;;;;;;18.88;17.58;;;;;;;;;;5112143;28;20284;-72
2022/06/17 07:52:48;;;;;;;18.48;17.27;;;;;;;;;;5112400;28;20201;-72
2022/06/17 07:55:15;;;;;;;19.23;17.92;;;;;;;;;;5112433;28;20197;-71
2022/06/17 07:57:42;;;;;;;18.65;17.45;;;;;;;;;;5112140;28;20189;-71
2022/06/17 08:00:09;;;;;;;19.05;17.75;;;;;;;;;;5112250;28;20236;-72
2022/06/17 08:02:36;;;;;;;18.48;17.27;;;;;;;;;;5112321;28;20194;-71
2022/06/17 08:05:04;;;;;;;18.58;17.38;;;;;;;;;;5112568;28;20297;-72
2022/06/17 08:07:31;;;;;;;18.35;17.15;;;;;;;;;;5116254;28;20246;-71
2022/06/17 08:09:58;;;;;;;18.48;17.27;;;;;;;;;;5115855;28;20293;-72
2022/06/17 08:12:24;;;;;;;19.83;18.42;;;;;;;;;;5116207;28;20554;-71
2022/06/17 08:14:54;;;;;;;18.77;17.55;;;;;;;;;;5116065;28;20279;-72
2022/06/17 08:17:21;;;;;;;18.70;17.50;;;;;;;;;;5116026;28;20193;-71
2022/06/17 08:19:48;;;;;;;18.88;17.58;;;;;;;;;;5116450;28;20190;-72
2022/06/17 08:22:17;;;;;;;18.30;17.10;;;;;;;;;;5115596;28;20195;-72
2022/06/17 08:24:43;;;;;;;18.23;17.02;;;;;;;;;;5115904;28;20290;-71
2022/06/17 08:27:10;;;;;;;19.05;17.85;;;;;;;;;;5115557;28;20233;-71
2022/06/17 08:29:37;;;;;;;18.23;17.02;;;;;;;;;;5115377;28;20225;-71
2022/06/17 08:34:44;;;;;;;19.40;18.20;;;;;;;;;;5115072;28;20247;-71
2022/06/17 08:37:11;;;;;;;18.70;17.50;;;;;;;;;;5115372;28;20722;-72
2022/06/17 08:39:40;;;;;;;18.88;17.67;;;;;;;;;;5115171;28;20283;-72
2022/06/17 08:42:12;;;;;;;18.88;17.67;;;;;;;;;;5115228;28;20201;-70
2022/06/17 08:44:43;;;;;;;18.90;17.70;;;;;;;;;;5116046;28;20189;-72
2022/06/17 08:47:15;;;;;;;18.48;17.27;;;;;;;;;;5115489;28;20217;-71
2022/06/17 08:49:49;;;;;;;18.42;17.23;;;;;;;;;;5115424;28;20224;-72
2022/06/17 08:52:25;;;;;;;18.77;17.58;;;;;;;;;;5115178;28;20196;-72
2022/06/17 08:54:58;;;;;;;18.30;17.10;;;;;;;;;;5115327;28;20184;-72
2022/06/17 08:57:29;;;;;;;18.77;17.50;;;;;;;;;;5115064;28;20276;-72
2022/06/17 09:00:07;;;;;;;19.27;17.98;;;;;;;;;;5115179;28;20217;-74
2022/06/17 09:02:43;;;;;;;18.73;17.42;;;;;;;;;;5114913;28;20196;-71
2022/06/17 09:05:20;;;;;;;19.10;17.80;;;;;;;;;;5115139;28;20273;-72
2022/06/17 09:07:51;;;;;;;18.77;17.58;;;;;;;;;;5114817;28;20249;-72
2022/06/17 09:10:25;;;;;;;18.83;17.63;;;;;;;;;;5114986;28;20192;-72
2022/06/17 09:12:59;;;;;;;18.95;17.65;;;;;;;;;;5114740;28;20216;-72
2022/06/17 09:15:31;;;;;;;18.85;17.65;;;;;;;;;;5114677;28;20189;-72
2022/06/17 09:18:03;;;;;;;19.27;17.98;;;;;;;;;;5114796;28;20201;-72
2022/06/17 09:20:33;;;;;;;19.00;17.70;;;;;;;;;;5114732;28;20216;-72
2022/06/17 09:23:02;;;;;;;19.60;18.30;;;;;;;;;;5114834;28;20246;-71
2022/06/17 09:25:37;;;;;;;18.60;17.30;;;;;;;;;;5114343;28;20200;-72
2022/06/17 09:28:04;;;;;;;19.08;17.67;;;;;;;;;;5114458;28;20275;-72
2022/06/17 09:30:34;;;;;;;18.63;17.33;;;;;;;;;;5114111;28;20748;-72
2022/06/17 09:33:05;;;;;;;18.65;17.38;;;;;;;;;;5114563;28;20193;-72
2022/06/17 09:35:36;;;;;;;19.17;17.77;;;;;;;;;;5114607;28;20185;-72
2022/06/17 09:38:11;;;;;;;19.30;17.90;;;;;;;;;;5114538;28;20186;-72
2022/06/17 09:40:41;;;;;;;19.40;18.00;;;;;;;;;;5114363;28;20216;-71
2022/06/17 09:43:13;;;;;;;19.38;17.90;;;;;;;;;;5114383;28;20223;-71
2022/06/17 09:45:42;;;;;;;21.80;19.88;;;;;;;;;;5113993;28;20734;-72
2022/06/17 09:48:11;;;;;;;20.42;18.92;;;;;;;;;;5114279;28;20193;-72
2022/06/17 09:50:41;;;;;;;20.90;19.40;;;;;;;;;;5114208;28;20648;-72
2022/06/17 09:53:09;;;;;;;20.95;19.45;;;;;;;;;;5113840;28;20203;-72
2022/06/17 09:55:37;;;;;;;22.20;20.70;;;;;;;;;;5114102;28;20193;-71
2022/06/17 09:58:08;;;;;;;21.60;20.10;;;;;;;;;;5114023;28;20200;-72
2022/06/17 10:00:37;;;;;;;21.85;20.30;;;;;;;;;;5113729;28;20300;-73
2022/06/17 10:03:14;;;;;;;21.48;19.98;;;;;;;;;;5113901;28;20272;-72
2022/06/17 10:05:46;;;;;;;21.17;19.58;;;;;;;;;;5113658;28;20196;-73
2022/06/17 10:08:20;;;;;;;20.85;19.35;;;;;;;;;;5113541;28;20193;-72
2022/06/17 10:10:54;;;;;;;20.50;19.00;;;;;;;;;;5113877;28;20188;-71
2022/06/17 10:13:27;;;;;;;20.85;19.35;;;;;;;;;;5113818;28;20246;-72
2022/06/17 10:18:52;;;;;;;20.40;18.90;;;;;;;;;;5113841;28;20242;-71
2022/06/17 10:21:39;;;;;;;24.20;22.70;;;;;;;;;;5114080;28;20223;-71
2022/06/17 10:24:10;;;;;;;22.90;21.30;;;;;;;;;;5113317;28;20184;-76
2022/06/17 10:26:44;;;;;;;24.77;22.98;;;;;;;;;;5113337;28;20192;-73
2022/06/17 10:29:18;;;;;;;27.02;25.13;;;;;;;;;;5112497;28;20272;-72
2022/06/17 10:31:46;;;;;;;26.95;25.05;;;;;;;;;;5113144;28;20291;-73
2022/06/17 10:34:15;;;;;;;25.40;23.70;;;;;;;;;;5113396;28;20231;-71
2022/06/17 10:36:43;;;;;;;22.85;21.35;;;;;;;;;;5113310;28;20193;-75
2022/06/17 10:39:11;;;;;;;23.20;21.90;;;;;;;;;;5113395;28;20571;-74
2022/06/17 10:41:38;;;;;;;22.75;21.55;;;;;;;;;;5112853;28;20634;-72
2022/06/17 10:44:08;;;;;;;21.85;20.65;;;;;;;;;;5112971;28;20195;-74
2022/06/17 10:46:39;;;;;;;21.20;20.05;;;;;;;;;;5112914;28;20207;-71
2022/06/17 10:49:09;;;;;;;20.33;19.23;;;;;;;;;;5112938;28;20182;-72
2022/06/17 10:51:36;;;;;;;19.65;18.45;;;;;;;;;;5112859;28;20185;-72
